Login
Access
Login with your mtb-forum.it nickname and password.


You do not have an account? Sign up here for free

M4T7E0

Last training unit 09/10/2016
2
Followers
17 639 Km
itineraries
152 140 m
of total vertical gain
609
hours of riding
29.73 Km/h
average speed
149
average HR


09/10/2016 Show to everybody Giro Mattutino 105.26 Km 470 m 03:34:18 29.47 Km\h De Rosa King XS
02/10/2016 Show to everybody Prosecco Cycling 2016 94.57 Km 2165 m 03:15:51 28.97 Km\h De Rosa King XS
24/09/2016 Show to everybody giro mattutino 82.14 Km 1431 m 02:55:20 28.11 Km\h De Rosa King XS
17/09/2016 Show to everybody Giro mattutino 2 122.24 Km 1623 m 04:39:19 26.26 Km\h De Rosa King XS
10/09/2016 Show to everybody Giro mattutino 112.47 Km 2079 m 04:27:02 25.27 Km\h Cannondale Synapse
08/09/2016 Show to everybody Allenamento 08-09-16 alle 15:57 51 Km 83 m 01:23:38 36.59 Km\h De Rosa King XS
04/09/2016 Show to everybody Allenamento 04-09-16 alle 05:06 99.02 Km 1953 m 03:59:51 24.77 Km\h De Rosa King XS
28/08/2016 Show to everybody Allenamento 28-08-2016 alle 06:04:33.000 113.69 Km 1652 m 04:26:33 25.59 Km\h De Rosa King XS
27/08/2016 Show to everybody Allenamento 27-08-2016 alle 05:42:26.000 99.39 Km 1459 m 03:55:06 25.36 Km\h De Rosa King XS
24/08/2016 Show to everybody Allenamento 24-08-2016 alle 15:47:28.000 48.6 Km 18 m 01:30:30 32.22 Km\h De Rosa King XS
11/08/2016 Show to everybody Allenamento 11-08-2016 alle 16:42:34.000 63.52 Km 88 m 01:44:03 36.63 Km\h De Rosa King XS
06/08/2016 Show to everybody Allenamento 06-08-2016 alle 04:16:14.000 114.97 Km 2345 m 04:51:08 23.7 Km\h De Rosa King XS
02/08/2016 Show to everybody Allenamento 02-08-2016 alle 16:07:15.000 48.16 Km 39 m 01:31:11 31.69 Km\h De Rosa King XS
30/07/2016 Show to everybody Allenamento 30-07-16 alle 04:03 124.68 Km 921 m 04:13:42 29.49 Km\h De Rosa King XS
23/07/2016 Show to everybody Allenamento 23-07-2016 alle 04:17:44 122.25 Km 2351 m 04:45:29 25.69 Km\h Trek Madone 5.9
16/07/2016 Show to everybody Allenamento 16-07-2016 alle 04:55:58 134.11 Km 2151 m 05:07:47 26.14 Km\h Trek Madone 5.9
08/07/2016 Show to everybody Allenamento 08-07-16 alle 03:19 39.44 Km 42 m 01:13:07 32.36 Km\h Trek Madone 5.9
05/07/2016 Show to everybody Allenamento 05-07-16 alle 17:40 43.4 Km 38 m 01:16:12 34.17 Km\h Trek Madone 5.9
03/07/2016 Show to everybody Allenamento 03-07-16 alle 06:02 103.84 Km 1565 m 04:04:00 25.53 Km\h Trek Madone 5.9
25/06/2016 Show to everybody Allenamento 25-06-16 alle 03:59 130.64 Km 1429 m 04:52:29 26.8 Km\h Trek Madone 5.9
23/06/2016 Show to everybody Allenamento 23-06-16 alle 17:06 39.93 Km 42 m 01:14:11 32.29 Km\h Trek Madone 5.9
12/06/2016 Show to everybody Allenamento 12-06-16 alle 06:07 105.01 Km 371 m 03:20:23 31.44 Km\h Trek Madone 5.9
12/06/2016 Show to everybody Allenamento 12-06-16 alle 06:07 105.01 Km 371 m 03:20:23 31.44 Km\h Trek Madone 5.9
05/06/2016 Show to everybody Allenamento 05-06-2016 alle 05:12:04 146.83 Km 4222 m 07:02:10 20.87 Km\h Trek Madone 5.9
02/06/2016 Show to everybody Allenamento 02-06-16 alle 05:57 55.3 Km 37 m 01:47:16 30.93 Km\h Trek Madone 5.9
18/05/2016 Show to everybody Allenamento 18-05-16 alle 15:21 59.18 Km 54 m 01:48:16 32.8 Km\h Trek Madone 5.9
15/05/2016 Show to everybody Allenamento 15-05-2016 alle 04:59:09 120.21 Km 2066 m 04:55:03 24.45 Km\h Trek Madone 5.9
08/05/2016 Show to everybody Mediofondo di primavera 2016 89.31 Km 1786 m 03:08:02 28.5 Km\h Trek Madone 5.9
07/05/2016 Show to everybody Allenamento 07-05-16 alle 12:08 57.09 Km 732 m 02:03:06 27.83 Km\h Trek Madone 5.9
05/05/2016 Show to everybody Allenamento 05-05-16 alle 15:16 53.57 Km 37 m 01:32:51 34.62 Km\h Trek Madone 5.9
05/05/2016 Show to everybody Allenamento 05-05-16 alle 15:16 53.57 Km 37 m 01:32:51 34.62 Km\h Trek Madone 5.9
30/04/2016 Show to everybody Allenamento 30-04-2016 alle 08:52:35.000 145.45 Km 2868 m 05:57:04 24.44 Km\h Trek Madone 5.9
28/04/2016 Show to everybody Allenamento 28-04-16 alle 15:38 56.42 Km 79 m 01:42:55 32.89 Km\h Trek Madone 5.9
24/04/2016 Show to everybody Randonnée del Vallone Bellunese 200.86 Km 2035 m 07:19:23 27.43 Km\h Trek Madone 5.9
16/04/2016 Show to everybody Allenamento 16-04-2016 alle 04:37:15 154.73 Km 2363 m 05:45:49 26.85 Km\h Trek Madone 5.9
10/04/2016 Show to everybody Allenamento 10-04-2016 alle 04:53:52 153.64 Km 3068 m 06:13:21 24.69 Km\h Trek Madone 5.9
07/04/2016 Show to everybody Allenamento 07-04-16 alle 15:44 54.94 Km 102 m 01:38:19 33.53 Km\h Trek Madone 5.9
03/04/2016 Show to everybody Allenamento 03-04-2016 alle 04:29:09.000 162.74 Km 1829 m 05:50:54 27.83 Km\h Trek Madone 5.9
31/03/2016 Show to everybody Allenamento 31-03-2016 alle 15:10:45.000 54.38 Km 61 m 01:35:16 34.25 Km\h Trek Madone 5.9
26/03/2016 Show to everybody Allenamento 26-03-2016 alle 06:03:45.000 138.91 Km 1621 m 05:01:03 27.69 Km\h Trek Madone 5.9
19/03/2016 Show to everybody Allenamento 19-03-16 alle 06:24 134.21 Km 1040 m 04:31:28 29.66 Km\h Trek Madone 5.9
13/03/2016 Show to everybody Allenamento 13-03-16 alle 06:49 110.43 Km 600 m 03:48:30 29 Km\h Trek Madone 5.9
12/03/2016 Show to everybody Allenamento 12-03-16 alle 10:20 141.6 Km 1162 m 04:50:35 29.24 Km\h Trek Madone 5.9
06/03/2016 Show to everybody Allenamento 06-03-16 alle 07:02 95.58 Km 580 m 03:12:18 29.82 Km\h Trek Madone 5.9
21/02/2016 Show to everybody Allenamento 21-02-16 alle 07:12 110.81 Km 438 m 03:40:21 30.17 Km\h Trek Madone 5.9
20/02/2016 Show to everybody Allenamento 20-02-16 alle 11:34 87.17 Km 1359 m 03:26:51 25.28 Km\h Trek Madone 5.9
06/02/2016 Show to everybody Allenamento 06-02-16 alle 12:33 98.52 Km 412 m 03:08:08 31.42 Km\h Trek Madone 5.9
31/01/2016 Show to everybody Allenamento 31-01-16 alle 08:40 100.7 Km 1526 m 03:45:00 26.85 Km\h Trek Madone 5.9
23/01/2016 Show to everybody Allenamento 23-01-2016 alle 08:42:44 98.89 Km 1525 m 03:44:09 26.47 Km\h Trek Madone 5.9
17/01/2016 Show to everybody Allenamento 17-01-16 alle 09:07 51.97 Km 35 m 01:42:05 30.55 Km\h Trek Madone 5.9
16/01/2016 Show to everybody Allenamento 16-01-2016 alle 09:16:20 87.79 Km 1551 m 03:34:12 24.59 Km\h Trek Madone 5.9
10/01/2016 Show to everybody Allenamento 10-01-2016 alle 08:09:06.000 121.12 Km 1901 m 04:30:38 26.85 Km\h Trek Madone 5.9
06/01/2016 Show to everybody Allenamento 06-01-2016 alle 08:04:45 69.18 Km 870 m 02:34:50 26.81 Km\h Trek Madone 5.9
30/12/2015 Show to everybody Allenamento 30-12-15 alle 08:14 79.59 Km 1205 m 03:11:26 24.95 Km\h Trek Madone 5.9
24/12/2015 Show to everybody Allenamento 24-12-15 alle 07:11 79.64 Km 1217 m 03:11:24 24.96 Km\h Trek Madone 5.9
20/12/2015 Show to everybody Allenamento 20-12-15 alle 07:13 99.07 Km 76 m 03:21:49 29.45 Km\h Trek Madone 5.9
19/12/2015 Show to everybody Allenamento 19-12-15 alle 07:37 77.32 Km 914 m 02:48:06 27.6 Km\h Trek Madone 5.9
13/12/2015 Show to everybody Allenamento 13-12-15 alle 07:33 100.37 Km 388 m 03:23:00 29.67 Km\h Trek Madone 5.9
12/12/2015 Show to everybody Allenamento 12-12-15 alle 10:54 102.33 Km 1412 m 03:51:39 26.5 Km\h Trek Madone 5.9
08/12/2015 Show to everybody Allenamento 08-12-15 alle 08:07 106.43 Km 1595 m 03:46:13 28.23 Km\h Trek Madone 5.9
05/12/2015 Show to everybody Allenamento 05-12-15 alle 08:12 90 Km 1146 m 03:23:08 26.58 Km\h Trek Madone 5.9
29/11/2015 Show to everybody Allenamento 29-11-15 alle 07:36 56.98 Km 59 m 01:46:03 32.24 Km\h Trek Madone 5.9
22/11/2015 Show to everybody Allenamento 22-11-15 alle 09:04 61.56 Km 1066 m 02:39:34 23.15 Km\h Trek Madone 5.9
21/11/2015 Show to everybody Allenamento 21-11-15 alle 09:00 44.49 Km 19 m 01:29:15 29.91 Km\h Trek Madone 5.9
15/11/2015 Show to everybody Allenamento 15-11-15 alle 07:36 119.16 Km 717 m 03:54:29 30.49 Km\h Trek Madone 5.9
14/11/2015 Show to everybody Allenamento 14-11-15 alle 12:58 67.37 Km 568 m 02:18:18 29.23 Km\h Trek Madone 5.9
01/11/2015 Show to everybody Allenamento 01-11-15 alle 07:33 116.12 Km 636 m 03:48:22 30.51 Km\h Trek Madone 5.9
31/10/2015 Show to everybody Allenamento 31-10-15 alle 07:39 89.95 Km 433 m 02:54:38 30.91 Km\h Trek Madone 5.9
25/10/2015 Show to everybody Allenamento 25-10-15 alle 07:34 105.96 Km 397 m 03:14:51 32.63 Km\h Trek Madone 5.9
24/10/2015 Show to everybody Allenamento 24-10-15 alle 06:01 135.64 Km 956 m 04:20:17 31.27 Km\h Trek Madone 5.9
24/10/2015 Show to everybody Allenamento 24-10-15 alle 06:01 135.64 Km 956 m 04:20:17 31.27 Km\h Trek Madone 5.9
18/10/2015 Show to everybody Allenamento 18-10-15 alle 06:11 113.51 Km 706 m 03:40:22 30.91 Km\h Trek Madone 5.9
17/10/2015 Show to everybody Allenamento 17-10-15 alle 08:21 116.07 Km 691 m 03:44:05 31.08 Km\h Trek Madone 5.9
11/10/2015 Show to everybody Allenamento 11-10-15 alle 06:05 119.15 Km 667 m 03:50:27 31.02 Km\h Trek Madone 5.9
10/10/2015 Show to everybody Allenamento 10-10-15 alle 05:06 163.82 Km 1453 m 05:29:22 29.84 Km\h Trek Madone 5.9
04/10/2015 Show to everybody Prosecco Cycling 2015 85.86 Km 890 m 02:43:21 31.54 Km\h Trek Madone 5.9
01/10/2015 Show to everybody Allenamento 01-10-15 alle 15:06 63.23 Km 45 m 01:57:22 32.32 Km\h Trek Madone 5.9
27/09/2015 Show to everybody Allenamento 27-09-15 alle 06:04 100.16 Km 399 m 03:14:36 30.88 Km\h Trek Madone 5.9
26/09/2015 Show to everybody Allenamento 26-09-15 alle 04:44 171.51 Km 1682 m 05:39:42 30.29 Km\h Trek Madone 5.9
20/09/2015 Show to everybody Allenamento 20-09-15 alle 06:08 93.28 Km 355 m 03:00:35 30.99 Km\h Trek Madone 5.9
19/09/2015 Show to everybody Allenamento 19-09-15 alle 05:32 115.72 Km 1951 m 04:22:47 26.42 Km\h Trek Madone 5.9
13/09/2015 Show to everybody Allenamento 13-09-15 alle 06:05 95.59 Km 364 m 02:58:55 32.06 Km\h Trek Madone 5.9
10/09/2015 Show to everybody Allenamento 10-09-15 alle 15:12 49.73 Km 5 m 01:27:18 34.18 Km\h Trek Madone 5.9
28/08/2015 Show to everybody Allenamento 28-08-15 alle 10:49 86.15 Km 312 m 02:43:35 31.6 Km\h Trek Madone 5.9
26/08/2015 Show to everybody Allenamento 26-08-15 alle 15:22 58.4 Km 27 m 01:52:09 31.24 Km\h Trek Madone 5.9
20/08/2015 Show to everybody Allenamento 20-08-15 alle 04:21 142.17 Km 2744 m 05:56:24 23.93 Km\h Trek Madone 5.9
18/08/2015 Show to everybody Allenamento 18-08-15 alle 05:06 155.71 Km 1893 m 05:39:57 27.48 Km\h Trek Madone 5.9
12/08/2015 Show to everybody Allenamento 12-08-15 alle 15:12 91.74 Km 352 m 02:48:02 32.76 Km\h Trek Madone 5.9
08/08/2015 Show to everybody Allenamento 08-08-15 alle 04:30 124.19 Km 882 m 04:09:07 29.91 Km\h Trek Madone 5.9
05/08/2015 Show to everybody Allenamento 05-08-15 alle 14:45 59.95 Km 74 m 01:54:13 31.49 Km\h Trek Madone 5.9
01/08/2015 Show to everybody Allenamento 01-08-15 alle 05:06 148.05 Km 1859 m 05:28:38 27.03 Km\h Trek Madone 5.9
26/07/2015 Show to everybody Allenamento 26-07-15 alle 06:08 150.75 Km 977 m 04:52:53 30.88 Km\h Trek Madone 5.9
25/07/2015 Show to everybody Allenamento 25-07-15 alle 04:02 129.18 Km 1338 m 04:33:41 28.32 Km\h Trek Madone 5.9
18/07/2015 Show to everybody Allenamento 18-07-15 alle 04:31 112.53 Km 2183 m 04:30:01 25 Km\h Trek Madone 5.9
15/07/2015 Show to everybody Allenamento 15-07-15 alle 15:20 95.47 Km 359 m 02:56:26 32.47 Km\h Trek Madone 5.9
12/07/2015 Show to everybody Allenamento 12-07-15 alle 04:13 174.24 Km 1834 m 06:09:33 28.29 Km\h Trek Madone 5.9
09/07/2015 Show to everybody Allenamento 09-07-15 alle 15:41 59.67 Km 30 m 01:51:20 32.16 Km\h Trek Madone 5.9
04/07/2015 Show to everybody Allenamento 04-07-15 alle 05:04 99.79 Km 1869 m 03:55:00 25.48 Km\h Trek Madone 5.9
01/07/2015 Show to everybody Allenamento 01-07-15 alle 15:37 102 Km 628 m 03:15:04 31.37 Km\h Trek Madone 5.9
27/06/2015 Show to everybody Allenamento 27-06-15 alle 04:07 118.34 Km 845 m 03:47:56 31.15 Km\h Trek Madone 5.9
21/06/2015 Show to everybody Allenamento 21-06-15 alle 06:14 95.8 Km 2467 m 04:26:59 21.53 Km\h Trek Madone 5.9
20/06/2015 Show to everybody Allenamento 20-06-15 alle 04:23 149.74 Km 1077 m 04:55:29 30.41 Km\h Trek Madone 5.9
17/06/2015 Show to everybody Allenamento 17-06-15 alle 15:41 99.22 Km 543 m 02:59:16 33.21 Km\h Trek Madone 5.9
13/06/2015 Show to everybody Allenamento 13-06-15 alle 04:56 142.32 Km 1651 m 05:06:40 27.84 Km\h Trek Madone 5.9
09/06/2015 Show to everybody Allenamento 09-06-15 alle 17:00 55.51 Km 83 m 01:36:49 34.4 Km\h Trek Madone 5.9
07/06/2015 Show to everybody Allenamento 07-06-2015 alle 05:35:32 133.39 Km 3213 m 05:44:03 23.26 Km\h Trek Madone 5.9
02/06/2015 Show to everybody Allenamento 02-06-15 alle 05:42 109 Km 1899 m 04:21:15 25.03 Km\h Trek Madone 5.9
30/05/2015 Show to everybody Allenamento 30-05-15 alle 15:15 61.77 Km 43 m 01:54:18 32.43 Km\h Trek Madone 5.9
19/05/2015 Show to everybody Allenamento 19-05-15 alle 15:27 49.63 Km 23 m 01:27:16 34.13 Km\h Trek Madone 5.9
17/05/2015 Show to everybody Allenamento 17-05-15 alle 05:46 109.23 Km 1851 m 04:13:30 25.85 Km\h Trek Madone 5.9
16/05/2015 Show to everybody Allenamento 16-05-15 alle 07:03 91.08 Km 51 m 02:43:40 33.39 Km\h Trek Madone 5.9
13/05/2015 Show to everybody Allenamento 13-05-15 alle 15:16 59.75 Km 52 m 01:52:30 31.87 Km\h Trek Madone 5.9
10/05/2015 Show to everybody Allenamento 10-05-15 alle 05:41 137.84 Km 2631 m 05:24:27 25.49 Km\h Trek Madone 5.9
09/05/2015 Show to everybody Allenamento 09-05-15 alle 04:59 135.07 Km 814 m 04:27:45 30.27 Km\h Trek Madone 5.9
07/05/2015 Show to everybody Allenamento 07-05-2015 alle 15:22:32 66.16 Km 41 m 02:01:43 32.62 Km\h Trek Madone 5.9
02/05/2015 Show to everybody Randonnee Portogruaro 203 Km 2441 m 07:15:58 27.94 Km\h Trek Madone 5.9
01/05/2015 Show to everybody Allenamento 01-05-15 alle 05:09 118.56 Km 603 m 03:53:15 30.5 Km\h Trek Madone 5.9
26/04/2015 Show to everybody Allenamento 26-04-15 alle 06:03 98.64 Km 382 m 03:15:33 30.27 Km\h Trek Madone 5.9
25/04/2015 Show to everybody Allenamento 25-04-15 alle 06:03 112.03 Km 2012 m 04:29:51 24.91 Km\h Trek Madone 5.9
23/04/2015 Show to everybody Allenamento 23-04-15 alle 15:03 66.8 Km 59 m 01:59:23 33.57 Km\h Trek Madone 5.9
19/04/2015 Show to everybody Allenamento 19-04-15 alle 06:30 101.5 Km 1095 m 03:34:12 28.43 Km\h Trek Madone 5.9
17/04/2015 Show to everybody Allenamento 17-04-15 alle 05:32 97.53 Km 371 m 03:07:04 31.28 Km\h Trek Madone 5.9
12/04/2015 Show to everybody Allenamento 12-04-15 alle 06:05 126.4 Km 1271 m 04:36:45 27.4 Km\h Trek Madone 5.9
11/04/2015 Show to everybody Allenamento 11-04-15 alle 10:57 84.24 Km 98 m 02:38:51 31.82 Km\h Trek Madone 5.9
09/04/2015 Show to everybody Allenamento 09-04-15 alle 14:52 66.59 Km 56 m 02:07:39 31.3 Km\h Trek Madone 5.9
06/04/2015 Show to everybody Allenamento 06-04-15 alle 06:33 95.13 Km 362 m 02:58:07 32.05 Km\h Trek Madone 5.9
04/04/2015 Show to everybody Allenamento 04-04-15 alle 09:05 84.14 Km 377 m 02:47:13 30.19 Km\h Trek Madone 5.9
29/03/2015 Show to everybody Allenamento 29-03-15 alle 06:39 83.26 Km 360 m 02:46:10 30.06 Km\h Trek Madone 5.9
21/03/2015 Show to everybody Allenamento 21-03-15 alle 11:45 75.55 Km 726 m 02:36:52 28.9 Km\h Trek Madone 5.9
21/03/2015 Show to everybody 03_21_2015 ponte della priula, veneto, italy 75.59 Km 729 m 02:36:52 28.91 Km\h Trek Madone 5.9
20/03/2015 Show to everybody Allenamento 20-03-15 alle 09:42 93.54 Km 1761 m 03:45:14 24.92 Km\h Trek Madone 5.9
15/03/2015 Show to everybody Allenamento 15-03-15 alle 07:35 112.53 Km 687 m 03:49:02 29.48 Km\h Trek Madone 5.9
06/03/2015 Show to everybody Allenamento 06-03-15 alle 10:17 99.37 Km 1582 m 03:34:24 27.81 Km\h Trek Madone 5.9
01/03/2015 Show to everybody Allenamento 01-03-15 alle 07:38 93.59 Km 273 m 02:57:37 31.61 Km\h Trek Madone 5.9
27/02/2015 Show to everybody Allenamento 27-02-15 alle 10:35 56.36 Km 44 m 01:47:17 31.52 Km\h Trek Madone 5.9
13/02/2015 Show to everybody Allenamento 13-02-15 alle 10:35 88.4 Km 517 m 02:59:07 29.61 Km\h Trek Madone 5.9
08/02/2015 Show to everybody Allenamento 08-02-2015 alle 07:35:43.000 97.73 Km 413 m 03:08:52 31.05 Km\h Trek Madone 5.9
01/02/2015 Show to everybody Allenamento 01-02-15 alle 07:35 96.32 Km 403 m 03:07:46 30.78 Km\h Trek Madone 5.9
18/01/2015 Show to everybody Allenamento 18-01-15 alle 07:36 96.67 Km 392 m 03:09:52 30.55 Km\h Trek Madone 5.9
08/01/2015 Show to everybody Allenamento 08-01-15 alle 10:20 90.46 Km 398 m 02:59:55 30.17 Km\h Trek Madone 5.9
06/01/2015 Show to everybody Allenamento 06-01-15 alle 10:16 85.05 Km 370 m 02:46:47 30.6 Km\h Trek Madone 5.9
18/12/2014 Show to everybody Allenamento 18-12-14 alle 10:20 88.25 Km 285 m 02:51:47 30.82 Km\h Trek Madone 5.9
17/12/2014 Show to everybody Allenamento 17-12-14 alle 10:23 82.24 Km 350 m 02:37:24 31.35 Km\h Trek Madone 5.9
11/12/2014 Show to everybody Allenamento 11-12-2014 alle 10:25:28 96.18 Km 328 m 02:59:23 32.17 Km\h Trek Madone 5.9
08/12/2014 Show to everybody Allenamento 08-12-14 alle 07:32 94.48 Km 518 m 03:08:08 30.13 Km\h Trek Madone 5.9
07/12/2014 Show to everybody Allenamento 07-12-14 alle 07:35 98.93 Km 409 m 03:12:56 30.77 Km\h Trek Madone 5.9
06/12/2014 Show to everybody Allenamento 06-12-14 alle 08:05 83.33 Km 359 m 02:36:44 31.9 Km\h Trek Madone 5.9
23/11/2014 Show to everybody Allenamento 23-11-14 alle 08:06 78.63 Km 776 m 02:45:45 28.46 Km\h Trek Madone 5.9
22/11/2014 Show to everybody Allenamento 22-11-14 alle 08:38 71.42 Km 73 m 02:12:38 32.31 Km\h Cannondale Synapse
16/11/2014 Show to everybody Allenamento 16-11-14 alle 07:38 105.31 Km 449 m 03:24:48 30.85 Km\h Cannondale Synapse
02/11/2014 Show to everybody Allenamento 02-11-14 alle 07:38 89.22 Km 335 m 02:49:23 31.61 Km\h Cannondale Synapse
01/11/2014 Show to everybody Allenamento 01-11-14 alle 07:33 56.35 Km 59 m 01:45:18 32.11 Km\h Cannondale Synapse
19/10/2014 Show to everybody Allenamento 19-10-14 alle 06:06 94.79 Km 350 m 02:48:08 33.83 Km\h Cannondale Synapse
18/10/2014 Show to everybody Allenamento 18-10-14 alle 06:22 89.83 Km 54 m 02:39:39 33.76 Km\h Cannondale Synapse
12/10/2014 Show to everybody Allenamento 12-10-14 alle 06:05 94.44 Km 369 m 02:38:58 35.64 Km\h Cannondale Synapse
11/10/2014 Show to everybody Allenamento 11-10-14 alle 06:48 93.81 Km 76 m 02:41:45 34.8 Km\h Cannondale Synapse
06/10/2014 Show to everybody Allenamento 06-10-14 alle 08:31 49.36 Km 32 m 01:29:52 32.95 Km\h Cannondale Synapse
05/10/2014 Show to everybody Allenamento 05-10-14 alle 06:03 95.61 Km 363 m 02:52:25 33.27 Km\h Cannondale Synapse
04/10/2014 Show to everybody Allenamento 04-10-14 alle 06:51 105.32 Km 471 m 03:17:06 32.06 Km\h Cannondale Synapse
27/09/2014 Show to everybody Allenamento 27-09-14 alle 06:23 87.64 Km 196 m 02:45:29 31.78 Km\h Cannondale Synapse
23/09/2014 Show to everybody Allenamento 23-09-2014 alle 14:59:42.000 54.82 Km 32 m 01:46:20 30.93 Km\h Cannondale Synapse
18/09/2014 Show to everybody Allenamento 18-09-14 alle 15:19 57.74 Km 67 m 01:41:51 34.02 Km\h Cannondale Synapse
16/09/2014 Show to everybody Allenamento 16-09-14 alle 15:18 49.86 Km 36 m 01:31:46 32.6 Km\h Cannondale Synapse
07/09/2014 Show to everybody Allenamento 07-09-14 alle 05:57 135.39 Km 2089 m 04:54:16 27.6 Km\h Cannondale Synapse
16/08/2014 Show to everybody Allenamento 16-08-2014 alle 05:52:43.000 79.07 Km 993 m 02:37:57 30.04 Km\h Cannondale Synapse
20/06/2014 Show to everybody Allenamento 20-06-14 alle 11:27 69.88 Km 54 m 02:11:19 31.93 Km\h Cannondale Synapse
17/06/2014 Show to everybody Allenamento 17-06-14 alle 14:51 54.09 Km 26 m 01:43:54 31.23 Km\h Cannondale Synapse
07/06/2014 Show to everybody Allenamento 07-06-14 alle 05:41 65.03 Km 59 m 02:00:04 32.5 Km\h Cannondale Synapse
31/05/2014 Show to everybody Allenamento 31-05-14 alle 05:47 95.62 Km 474 m 03:06:21 30.79 Km\h Cannondale Synapse
24/05/2014 Show to everybody Allenamento 24-05-14 alle 11:56 87.95 Km 1732 m 03:37:26 24.27 Km\h Cannondale Synapse
18/05/2014 Show to everybody Allenamento 18-05-14 alle 07:26 117.78 Km 475 m 03:56:32 29.88 Km\h Cannondale Synapse
17/05/2014 Show to everybody Allenamento 17-05-14 alle 06:41 83.03 Km 1762 m 03:24:35 24.35 Km\h Cannondale Synapse
13/05/2014 Show to everybody Allenamento 13-05-14 alle 15:19 58.49 Km 41 m 01:50:06 31.87 Km\h Cannondale Synapse
04/05/2014 Show to everybody Allenamento 04-05-14 alle 06:13 78.96 Km 1292 m 03:14:50 24.31 Km\h Cannondale Synapse
01/05/2014 Show to everybody Allenamento 01-05-14 alle 06:40 74.24 Km 683 m 02:35:09 28.71 Km\h Cannondale Synapse
26/04/2014 Show to everybody Allenamento 26-04-14 alle 07:37 67.06 Km 27 m 02:10:14 30.9 Km\h Cannondale Synapse
21/03/2014 Show to everybody Allenamento 21-03-2014 alle 10:53:24.000 70.13 Km 70 m 02:05:40 33.49 Km\h Cannondale Synapse
21/12/2013 Show to everybody activity_417956312 52.19 Km 34 m 01:40:33 31.14 Km\h Cannondale Synapse
19/12/2013 Show to everybody activity_417410752 31.54 Km 8 m 00:59:02 32.06 Km\h Cannondale Synapse
02/07/2013 Show to everybody Allenamento 02-07-13 alle 15:22 40.12 Km 20 m 01:14:32 32.3 Km\h Cannondale Synapse
01/07/2013 Show to everybody Allenamento 01-07-13 alle 15:22 52.2 Km 42 m 01:36:29 32.46 Km\h Cannondale Synapse
18/05/2013 Show to everybody Allenamento 18-05-13 alle 12:11 51.57 Km 735 m 02:02:37 25.24 Km\h Cannondale Synapse
15/05/2013 Show to everybody Allenamento 15-05-13 alle 14:47 53.1 Km 55 m 01:47:06 29.75 Km\h Cannondale Synapse
14/05/2013 Show to everybody Allenamento 14-05-13 alle 14:47 53.57 Km 42 m 01:46:16 30.25 Km\h Cannondale Synapse
13/05/2013 Show to everybody Allenamento 13-05-13 alle 14:49 45.5 Km 14 m 01:31:45 29.75 Km\h Cannondale Synapse
12/05/2013 Show to everybody Allenamento 12-05-13 alle 07:47 46.64 Km 20 m 01:31:43 30.51 Km\h Cannondale Synapse
17/03/2013 Show to everybody Allenamento 17-03-13 alle 09:00 59.59 Km 80 m 02:00:35 29.65 Km\h Cannondale Synapse
15/03/2013 Show to everybody Allenamento 15-03-13 alle 15:23 50.55 Km 41 m 01:36:48 31.33 Km\h Cannondale Synapse
10/03/2013 Show to everybody Allenamento 10-03-13 alle 11:07 57.08 Km 46 m 01:54:01 30.04 Km\h Cannondale Synapse
01/03/2013 Show to everybody Allenamento 01-03-13 alle 14:55 39.57 Km 37 m 01:17:48 30.52 Km\h Cannondale Synapse
17/02/2013 Show to everybody Allenamento 17-02-13 alle 11:42 55.07 Km 51 m 01:52:41 29.32 Km\h Cannondale Synapse
10/02/2013 Show to everybody Allenamento 10-02-13 alle 12:47 48.68 Km 67 m 01:55:57 25.19 Km\h Cannondale Synapse

Show previous years trainings
This user's bikes.
Cannondale Synapse 30 2336.89 Km 11788 m 75:55:27 31.25 Km/h
Trek Madone 5.9 134 13368.87 Km 122776 m 465:09:50 29.49 Km/h
De Rosa King XS 13 1167.25 Km 14247 m 42:00:30 29.14 Km/h

350 points
Kilometers
0
Vertical gain
0
Rank:47

Watch ranking »

 

Bike name

Delete this bike?

Now you follow this users and you can compare your trainings

If you stop following this users you will not be able to compare your trainings with his


bdc-forum.it | 2012-2020 Training Camp v.1.0.15